Time,TemperatureF,DewpointF,PressureIn,WindDirection,WindDirectionDegrees,WindSpeedMPH,WindSpeedGustMPH,Humidity,HourlyPrecipIn,Conditions,Clouds,dailyrainin,SoftwareType,DateUTC
2013-01-02 00:00:00,20.6,15.4,30.19,NW,322,6.0,11.0,80,0.00,,---,0.01,VWS V14.01,2013-01-02 05:00:00,
2013-01-02 00:02:00,20.6,15.4,30.19,NW,321,8.0,9.0,80,0.00,,---,0.00,VWS V14.01,2013-01-02 05:02:00,
2013-01-02 00:07:00,20.5,15.3,30.19,NW,313,6.0,9.0,80,0.00,,---,0.00,VWS V14.01,2013-01-02 05:07:00,
2013-01-02 00:12:00,20.3,15.1,30.19,WNW,302,4.0,9.0,80,0.00,,---,0.00,VWS V14.01,2013-01-02 05:12:00,
2013-01-02 00:17:00,20.2,15.0,30.19,NW,312,5.0,9.0,80,0.00,,---,0.00,VWS V14.01,2013-01-02 05:17:00,
2013-01-02 00:22:00,20.0,14.8,30.19,NW,305,5.0,9.0,80,0.00,,---,0.00,VWS V14.01,2013-01-02 05:22:00,
2013-01-02 00:27:00,19.7,14.5,30.19,NW,312,5.0,9.0,80,0.00,,---,0.00,VWS V14.01,2013-01-02 05:27:00,
2013-01-02 00:30:00,19.7,14.5,30.19,NW,308,4.0,9.0,80,0.00,,---,0.00,VWS V14.01,2013-01-02 05:30:00,
2013-01-02 00:32:00,19.5,14.4,30.19,NW,319,4.0,7.0,80,0.00,,---,0.00,VWS V14.01,2013-01-02 05:32:00,
2013-01-02 00:37:00,19.5,14.4,30.18,NW,308,4.0,8.0,80,0.00,,---,0.00,VWS V14.01,2013-01-02 05:37:00,
2013-01-02 00:42:00,19.4,14.2,30.18,NW,304,5.0,8.0,80,0.00,,---,0.00,VWS V14.01,2013-01-02 05:42:00,
2013-01-02 00:47:00,19.1,14.0,30.19,WNW,300,4.0,8.0,80,0.00,,---,0.00,VWS V14.01,2013-01-02 05:47:00,
2013-01-02 00:52:00,18.9,13.8,30.19,NW,306,5.0,8.0,80,0.00,,---,0.00,VWS V14.01,2013-01-02 05:52:00,
2013-01-02 00:57:00,18.8,13.9,30.18,NW,325,5.0,8.0,81,0.00,,---,0.00,VWS V14.01,2013-01-02 05:57:00,
2013-01-02 01:00:00,18.6,13.5,30.18,NW,309,4.0,8.0,80,0.00,,---,0.00,VWS V14.01,2013-01-02 06:00:00,
2013-01-02 01:02:00,18.6,13.8,30.18,NW,311,4.0,7.0,81,0.00,,---,0.00,VWS V14.01,2013-01-02 06:02:00,
2013-01-02 01:07:00,18.4,13.3,30.18,NW,309,6.0,9.0,80,0.00,,---,0.00,VWS V14.01,2013-01-02 06:07:00,
2013-01-02 01:12:00,18.4,13.3,30.18,NW,308,8.0,9.0,80,0.00,,---,0.00,VWS V14.01,2013-01-02 06:12:00,
2013-01-02 01:17:00,18.4,13.3,30.19,NW,313,8.0,9.0,80,0.00,,---,0.00,VWS V14.01,2013-01-02 06:17:00,
2013-01-02 01:22:00,18.4,13.0,30.19,NW,306,7.0,9.0,79,0.00,,---,0.00,VWS V14.01,2013-01-02 06:22:00,
2013-01-02 01:27:00,18.1,12.7,30.18,NW,305,6.0,10.0,79,0.00,,---,0.00,VWS V14.01,2013-01-02 06:27:00,
2013-01-02 01:30:00,18.1,12.7,30.18,NW,312,6.0,10.0,79,0.00,,---,0.00,VWS V14.01,2013-01-02 06:30:00,
2013-01-02 01:32:00,18.0,12.6,30.17,NW,315,7.0,7.0,79,0.00,,---,0.00,VWS V14.01,2013-01-02 06:32:00,
2013-01-02 01:38:00,17.8,12.4,30.18,NW,325,7.0,8.0,79,0.00,,---,0.00,VWS V14.01,2013-01-02 06:38:00,
2013-01-02 01:43:00,17.8,12.1,30.18,NW,321,8.0,8.0,78,0.00,,---,0.00,VWS V14.01,2013-01-02 06:43:00,
2013-01-02 01:48:00,17.7,12.0,30.18,NW,325,5.0,8.0,78,0.00,,---,0.00,VWS V14.01,2013-01-02 06:48:00,
2013-01-02 01:53:00,17.5,11.8,30.18,NW,312,4.0,8.0,78,0.00,,---,0.00,VWS V14.01,2013-01-02 06:53:00,
2013-01-02 01:58:00,17.5,11.8,30.18,NW,326,6.0,8.0,78,0.00,,---,0.00,VWS V14.01,2013-01-02 06:58:00,
2013-01-02 02:00:00,17.3,11.6,30.18,NW,321,3.0,8.0,78,0.00,,---,0.00,VWS V14.01,2013-01-02 07:00:00,
2013-01-02 02:03:00,17.3,11.6,30.19,NW,312,5.0,6.0,78,0.00,,---,0.00,VWS V14.01,2013-01-02 07:03:00,
2013-01-02 02:08:00,17.3,11.6,30.18,NW,321,6.0,6.0,78,0.00,,---,0.00,VWS V14.01,2013-01-02 07:08:00,
2013-01-02 02:13:00,17.2,11.5,30.19,NW,304,5.0,6.0,78,0.00,,---,0.00,VWS V14.01,2013-01-02 07:13:00,
2013-01-02 02:18:00,17.2,11.5,30.19,NW,320,6.0,6.0,78,0.00,,---,0.00,VWS V14.01,2013-01-02 07:18:00,
2013-01-02 02:23:00,17.0,11.3,30.19,NW,308,3.0,7.0,78,0.00,,---,0.00,VWS V14.01,2013-01-02 07:23:00,
2013-01-02 02:28:00,16.9,11.2,30.19,NW,321,6.0,8.0,78,0.00,,---,0.00,VWS V14.01,2013-01-02 07:28:00,
2013-01-02 02:30:00,16.9,11.2,30.19,NW,305,6.0,8.0,78,0.00,,---,0.00,VWS V14.01,2013-01-02 07:30:00,
2013-01-02 02:33:00,16.9,11.2,30.19,NW,315,3.0,6.0,78,0.00,,---,0.00,VWS V14.01,2013-01-02 07:33:00,
2013-01-02 02:38:00,16.9,11.2,30.19,NW,319,5.0,7.0,78,0.00,,---,0.00,VWS V14.01,2013-01-02 07:38:00,
2013-01-02 02:43:00,16.9,11.2,30.20,NW,308,4.0,7.0,78,0.00,,---,0.00,VWS V14.01,2013-01-02 07:43:00,
2013-01-02 02:48:00,16.9,11.2,30.20,NW,315,4.0,7.0,78,0.00,,---,0.00,VWS V14.01,2013-01-02 07:48:00,
2013-01-02 02:53:00,16.7,11.1,30.20,NW,321,7.0,7.0,78,0.00,,---,0.00,VWS V14.01,2013-01-02 07:53:00,
2013-01-02 02:58:00,16.7,11.1,30.20,NW,309,5.0,8.0,78,0.00,,---,0.00,VWS V14.01,2013-01-02 07:58:00,
2013-01-02 03:00:00,16.7,11.1,30.21,NW,315,5.0,8.0,78,0.00,,---,0.00,VWS V14.01,2013-01-02 08:00:00,
2013-01-02 03:30:00,16.1,10.2,30.22,NW,315,6.0,11.0,77,0.00,,---,0.00,VWS V14.01,2013-01-02 08:30:00,
2013-01-02 04:00:00,15.4,9.2,30.22,NW,315,6.0,9.0,76,0.00,,---,0.00,VWS V14.01,2013-01-02 09:00:00,
2013-01-02 04:30:00,14.9,8.4,30.22,NW,315,6.0,10.0,75,0.00,,---,0.00,VWS V14.01,2013-01-02 09:30:00,
2013-01-02 05:00:00,14.3,7.6,30.23,NW,315,6.0,10.0,74,0.00,,---,0.00,VWS V14.01,2013-01-02 10:00:00,
2013-01-02 05:30:00,13.3,6.9,30.22,NNW,338,6.0,9.0,75,0.00,,---,0.00,VWS V14.01,2013-01-02 10:30:00,
2013-01-02 06:00:00,12.8,6.4,30.22,NNW,338,5.0,10.0,75,0.00,,---,0.00,VWS V14.01,2013-01-02 11:00:00,
2013-01-02 06:30:00,12.1,6.0,30.22,NNW,338,5.0,10.0,76,0.00,,---,0.00,VWS V14.01,2013-01-02 11:30:00,
2013-01-02 07:00:00,11.6,5.5,30.22,NW,315,5.0,8.0,76,0.00,,---,0.00,VWS V14.01,2013-01-02 12:00:00,
2013-01-02 07:30:00,11.1,5.3,30.23,NW,315,4.0,8.0,77,0.00,,---,0.00,VWS V14.01,2013-01-02 12:30:00,
2013-01-02 08:00:00,10.5,5.3,30.25,NW,315,2.0,7.0,79,0.00,,---,0.00,VWS V14.01,2013-01-02 13:00:00,
2013-01-02 08:30:00,10.9,5.7,30.26,WNW,292,2.0,4.0,79,0.00,,---,0.00,VWS V14.01,2013-01-02 13:30:00,
2013-01-02 09:00:00,10.9,5.1,30.27,NW,315,3.0,7.0,77,0.00,,---,0.00,VWS V14.01,2013-01-02 14:00:00,
2013-01-02 09:30:00,12.3,5.9,30.26,NW,315,3.0,6.0,75,0.00,,---,0.00,VWS V14.01,2013-01-02 14:30:00,
2013-01-02 10:00:00,12.8,5.8,30.28,NW,315,3.0,5.0,73,0.00,,---,0.00,VWS V14.01,2013-01-02 15:00:00,
2013-01-02 10:30:00,14.0,6.0,30.29,NW,315,2.0,5.0,70,0.00,,---,0.00,VWS V14.01,2013-01-02 15:30:00,
2013-01-02 11:00:00,15.6,6.3,30.29,NW,315,3.0,7.0,66,0.00,,---,0.00,VWS V14.01,2013-01-02 16:00:00,
2013-01-02 11:30:00,17.3,5.8,30.28,NNW,338,2.0,6.0,60,0.00,,---,0.00,VWS V14.01,2013-01-02 16:30:00,
2013-01-02 12:00:00,18.8,4.5,30.28,NNW,338,0.0,3.0,53,0.00,,---,0.00,VWS V14.01,2013-01-02 17:00:00,
2013-01-02 12:30:00,18.6,5.5,30.27,WSW,248,1.0,3.0,56,0.00,,---,0.00,VWS V14.01,2013-01-02 17:30:00,
2013-01-02 13:00:00,18.4,6.1,30.26,SSW,202,2.0,4.0,58,0.00,,---,0.00,VWS V14.01,2013-01-02 18:00:00,
2013-01-02 13:30:00,17.7,5.8,30.25,South,180,2.0,4.0,59,0.00,,---,0.00,VWS V14.01,2013-01-02 18:30:00,
2013-01-02 14:00:00,17.5,5.3,30.24,SE,135,3.0,5.0,58,0.00,,---,0.00,VWS V14.01,2013-01-02 19:00:00,
2013-01-02 14:30:00,17.8,4.4,30.23,SE,135,4.0,5.0,55,0.00,,---,0.00,VWS V14.01,2013-01-02 19:30:00,
2013-01-02 15:00:00,18.0,3.8,30.24,SE,135,4.0,6.0,53,0.00,,---,0.00,VWS V14.01,2013-01-02 20:00:00,
2013-01-02 15:30:00,18.4,4.1,30.23,SE,135,3.0,5.0,53,0.00,,---,0.00,VWS V14.01,2013-01-02 20:30:00,
2013-01-02 16:00:00,18.6,4.3,30.24,SE,135,3.0,4.0,53,0.00,,---,0.00,VWS V14.01,2013-01-02 21:00:00,
2013-01-02 16:30:00,18.8,3.7,30.24,SE,135,2.0,4.0,51,0.00,,---,0.00,VWS V14.01,2013-01-02 21:30:00,
2013-01-02 17:00:00,18.9,4.2,30.24,SE,135,1.0,3.0,52,0.00,,---,0.00,VWS V14.01,2013-01-02 22:00:00,
2013-01-02 17:30:00,18.4,4.6,30.24,SE,135,2.0,3.0,54,0.00,,---,0.00,VWS V14.01,2013-01-02 22:30:00,
2013-01-02 18:00:00,17.8,4.8,30.26,SE,135,2.0,3.0,56,0.00,,---,0.00,VWS V14.01,2013-01-02 23:00:00,
2013-01-02 18:30:00,17.7,4.3,30.26,East,90,2.0,3.0,55,0.00,,---,0.00,VWS V14.01,2013-01-02 23:30:00,
2013-01-02 19:00:00,18.0,4.6,30.27,East,90,2.0,3.0,55,0.00,,---,0.00,VWS V14.01,2013-01-03 00:00:00,
2013-01-02 19:30:00,18.3,4.4,30.27,East,90,1.0,2.0,54,0.00,,---,0.00,VWS V14.01,2013-01-03 00:30:00,
2013-01-02 20:00:00,17.7,4.3,30.26,ESE,112,2.0,3.0,55,0.00,,---,0.00,VWS V14.01,2013-01-03 01:00:00,
2013-01-02 20:30:00,17.2,3.8,30.27,ESE,112,3.0,5.0,55,0.00,,---,0.00,VWS V14.01,2013-01-03 01:30:00,
2013-01-02 21:00:00,16.5,3.5,30.26,ESE,112,4.0,5.0,56,0.00,,---,0.00,VWS V14.01,2013-01-03 02:00:00,
2013-01-02 21:30:00,16.9,2.7,30.26,ESE,112,4.0,7.0,53,0.00,,---,0.00,VWS V14.01,2013-01-03 02:30:00,
2013-01-02 22:00:00,16.4,2.7,30.26,SE,135,3.0,4.0,54,0.00,,---,0.00,VWS V14.01,2013-01-03 03:00:00,
2013-01-02 22:30:00,16.1,3.6,30.26,SSE,158,4.0,7.0,57,0.00,,---,0.00,VWS V14.01,2013-01-03 03:30:00,
2013-01-02 23:00:00,16.9,4.7,30.26,South,180,0.0,3.0,58,0.00,,---,0.00,VWS V14.01,2013-01-03 04:00:00,
2013-01-02 23:30:00,16.4,6.7,30.26,South,180,2.0,3.0,65,0.00,,---,0.00,VWS V14.01,2013-01-03 04:30:00,